Time;durP1;ratioP1;P1;durP2;ratioP2;P2;SDS_P1;SDS_P2;PMS_P1;PMS_P2;Temp;Humidity;BMP_temperature;BMP_pressure;BME280_temperature;BME280_humidity;BME280_pressure;Samples;Min_cycle;Max_cycle;Signal;HPM_P1;HPM_P2
2020/12/14 00:01:36;;;;;;;8.77;6.38;;;;;;;;;;5088296;28;20468;-53
2020/12/14 00:04:02;;;;;;;10.40;6.88;;;;;;;;;;5096564;28;20166;-53
2020/12/14 00:06:28;;;;;;;8.90;6.32;;;;;;;;;;5096469;28;20181;-53
2020/12/14 00:08:54;;;;;;;10.95;6.55;;;;;;;;;;5095734;28;20498;-53
2020/12/14 00:11:20;;;;;;;8.88;6.43;;;;;;;;;;5087024;28;20170;-53
2020/12/14 00:13:47;;;;;;;9.73;6.57;;;;;;;;;;5076475;28;20435;-53
2020/12/14 00:16:13;;;;;;;9.70;6.53;;;;;;;;;;5086879;28;20182;-53
2020/12/14 00:18:39;;;;;;;10.63;6.13;;;;;;;;;;5096339;28;20231;-53
2020/12/14 00:21:05;;;;;;;8.32;5.78;;;;;;;;;;5093691;28;20180;-53
2020/12/14 00:23:30;;;;;;;8.70;5.95;;;;;;;;;;5085631;28;20193;-53
2020/12/14 00:25:56;;;;;;;11.35;6.00;;;;;;;;;;5095452;28;20181;-53
2020/12/14 00:28:23;;;;;;;8.60;5.57;;;;;;;;;;5088056;28;20174;-53
2020/12/14 00:30:49;;;;;;;8.63;5.20;;;;;;;;;;5100789;28;20545;-53
2020/12/14 00:33:15;;;;;;;8.38;5.32;;;;;;;;;;5100443;28;20182;-53
2020/12/14 00:35:41;;;;;;;8.63;5.43;;;;;;;;;;5098594;28;20231;-53
2020/12/14 00:38:07;;;;;;;8.77;5.38;;;;;;;;;;5088470;28;20546;-53
2020/12/14 00:40:32;;;;;;;8.60;4.97;;;;;;;;;;5080412;28;20448;-53
2020/12/14 00:42:58;;;;;;;9.02;5.50;;;;;;;;;;5119609;28;20184;-53
2020/12/14 00:45:24;;;;;;;8.43;5.63;;;;;;;;;;5098785;28;20597;-53
2020/12/14 00:47:50;;;;;;;6.38;4.88;;;;;;;;;;5099333;28;20189;-53
2020/12/14 00:50:16;;;;;;;6.72;4.45;;;;;;;;;;5088828;28;20285;-53
2020/12/14 00:52:42;;;;;;;9.68;5.50;;;;;;;;;;5079791;28;20177;-53
2020/12/14 00:55:08;;;;;;;7.35;4.95;;;;;;;;;;5086327;28;20177;-53
2020/12/14 00:57:34;;;;;;;8.15;5.43;;;;;;;;;;5086172;28;20175;-53
2020/12/14 01:00:00;;;;;;;10.02;4.68;;;;;;;;;;5092678;28;20185;-53
2020/12/14 01:02:26;;;;;;;5.18;4.28;;;;;;;;;;5100150;28;20274;-53
2020/12/14 01:04:52;;;;;;;7.40;5.22;;;;;;;;;;5088432;28;20177;-53
2020/12/14 01:07:18;;;;;;;7.18;4.50;;;;;;;;;;5086128;28;20261;-53
2020/12/14 01:09:44;;;;;;;6.22;4.57;;;;;;;;;;5090360;28;20276;-53
2020/12/14 01:12:10;;;;;;;6.00;4.50;;;;;;;;;;5098885;28;20437;-53
2020/12/14 01:14:36;;;;;;;6.68;4.43;;;;;;;;;;5098778;28;20173;-53
2020/12/14 01:17:02;;;;;;;7.35;4.53;;;;;;;;;;5092022;28;20489;-53
2020/12/14 01:19:28;;;;;;;6.07;4.50;;;;;;;;;;5098399;28;20181;-53
2020/12/14 01:21:54;;;;;;;6.03;4.50;;;;;;;;;;5099642;28;20166;-53
2020/12/14 01:24:20;;;;;;;5.88;4.20;;;;;;;;;;5080711;28;20583;-53
2020/12/14 01:26:46;;;;;;;5.60;4.28;;;;;;;;;;5081709;28;20261;-53
2020/12/14 01:29:12;;;;;;;4.90;3.85;;;;;;;;;;5097569;28;20691;-53
2020/12/14 01:31:38;;;;;;;4.90;3.70;;;;;;;;;;5081691;28;20430;-53
2020/12/14 01:34:04;;;;;;;5.93;3.67;;;;;;;;;;5099232;28;20162;-53
2020/12/14 01:36:30;;;;;;;6.72;4.30;;;;;;;;;;5098217;28;20299;-53
2020/12/14 01:38:56;;;;;;;5.07;3.60;;;;;;;;;;5099230;28;20248;-53
2020/12/14 01:41:22;;;;;;;4.40;3.50;;;;;;;;;;5099169;28;20184;-53
2020/12/14 01:43:48;;;;;;;5.05;3.85;;;;;;;;;;5098695;28;20180;-53
2020/12/14 01:46:14;;;;;;;4.88;3.83;;;;;;;;;;5098030;28;20182;-53
2020/12/14 01:48:40;;;;;;;4.55;3.70;;;;;;;;;;5079426;28;20202;-53
2020/12/14 01:51:06;;;;;;;5.03;3.45;;;;;;;;;;5079130;28;20270;-53
2020/12/14 01:53:34;;;;;;;4.88;3.75;;;;;;;;;;5079064;28;20170;-53
2020/12/14 01:56:03;;;;;;;4.65;3.60;;;;;;;;;;5094396;28;20170;-53
2020/12/14 01:58:29;;;;;;;4.90;3.35;;;;;;;;;;5098081;28;20458;-53
2020/12/14 02:00:55;;;;;;;4.85;3.42;;;;;;;;;;5098975;28;20193;-53
2020/12/14 02:03:21;;;;;;;4.78;3.10;;;;;;;;;;5097134;28;20182;-53
2020/12/14 02:05:47;;;;;;;4.90;3.38;;;;;;;;;;5098392;28;20172;-53
2020/12/14 02:08:13;;;;;;;5.25;3.40;;;;;;;;;;5099669;28;20208;-53
2020/12/14 02:10:39;;;;;;;4.20;2.90;;;;;;;;;;5105141;28;20224;-53
2020/12/14 02:13:05;;;;;;;5.00;3.30;;;;;;;;;;5084047;28;20177;-53
2020/12/14 02:15:31;;;;;;;3.67;3.22;;;;;;;;;;5097592;28;20194;-53
2020/12/14 02:17:57;;;;;;;4.05;3.38;;;;;;;;;;5092298;28;20224;-53
2020/12/14 02:20:23;;;;;;;3.58;2.90;;;;;;;;;;5078339;28;20190;-53
2020/12/14 02:22:49;;;;;;;3.08;2.78;;;;;;;;;;5078342;28;20182;-53
2020/12/14 02:25:15;;;;;;;3.85;2.92;;;;;;;;;;5077903;28;20171;-53
2020/12/14 02:27:43;;;;;;;4.45;3.00;;;;;;;;;;5078073;28;20716;-53
2020/12/14 02:30:10;;;;;;;3.05;2.75;;;;;;;;;;5092495;28;20222;-53
2020/12/14 02:32:36;;;;;;;3.60;2.70;;;;;;;;;;5098416;28;20174;-53
2020/12/14 02:35:02;;;;;;;3.30;2.80;;;;;;;;;;5087026;28;20245;-53
2020/12/14 02:37:29;;;;;;;3.70;3.03;;;;;;;;;;5098431;28;20235;-53
2020/12/14 02:39:56;;;;;;;3.28;2.47;;;;;;;;;;5091054;28;20177;-53
2020/12/14 02:42:22;;;;;;;3.03;2.53;;;;;;;;;;5112384;28;20189;-53
2020/12/14 02:44:49;;;;;;;3.65;2.60;;;;;;;;;;5117817;28;20173;-53
2020/12/14 02:47:15;;;;;;;3.42;2.83;;;;;;;;;;5118121;28;20165;-53
2020/12/14 02:49:41;;;;;;;3.05;2.75;;;;;;;;;;5106980;28;20198;-53
2020/12/14 02:52:08;;;;;;;3.70;3.25;;;;;;;;;;5097234;28;20243;-53
2020/12/14 02:54:34;;;;;;;3.47;2.65;;;;;;;;;;5097415;28;20170;-53
2020/12/14 02:57:00;;;;;;;3.20;2.65;;;;;;;;;;5092363;28;20186;-53
2020/12/14 02:59:26;;;;;;;2.72;2.53;;;;;;;;;;5097259;28;20511;-53
2020/12/14 03:01:52;;;;;;;3.22;2.78;;;;;;;;;;5082416;28;20202;-53
2020/12/14 03:04:19;;;;;;;2.67;2.42;;;;;;;;;;5093840;28;20268;-53
2020/12/14 03:06:45;;;;;;;2.78;2.47;;;;;;;;;;5097444;28;20162;-53
2020/12/14 03:09:12;;;;;;;2.80;2.50;;;;;;;;;;5096931;28;20215;-53
2020/12/14 03:11:39;;;;;;;3.22;2.67;;;;;;;;;;5096879;28;20182;-53
2020/12/14 03:14:05;;;;;;;4.05;2.63;;;;;;;;;;5097039;28;20597;-53
2020/12/14 03:16:31;;;;;;;3.05;2.50;;;;;;;;;;5096842;28;20173;-53
2020/12/14 03:18:57;;;;;;;3.10;2.80;;;;;;;;;;5097480;28;20185;-53
2020/12/14 03:21:23;;;;;;;2.58;2.38;;;;;;;;;;5087717;28;20558;-53
2020/12/14 03:23:49;;;;;;;2.55;2.30;;;;;;;;;;5076102;28;20193;-53
2020/12/14 03:26:16;;;;;;;2.90;2.60;;;;;;;;;;5075935;28;20432;-53
2020/12/14 03:28:42;;;;;;;3.15;2.00;;;;;;;;;;5076187;28;20195;-53
2020/12/14 03:31:08;;;;;;;3.42;2.40;;;;;;;;;;5094883;28;20174;-53
2020/12/14 03:33:34;;;;;;;2.65;2.28;;;;;;;;;;5096096;28;20538;-53
2020/12/14 03:36:00;;;;;;;3.17;2.03;;;;;;;;;;5091494;28;20636;-53
2020/12/14 03:38:26;;;;;;;2.33;2.00;;;;;;;;;;5096202;28;20245;-53
2020/12/14 03:40:52;;;;;;;3.42;2.20;;;;;;;;;;5097950;28;20201;-53
2020/12/14 03:43:18;;;;;;;2.65;2.20;;;;;;;;;;5095891;28;20225;-53
2020/12/14 03:45:44;;;;;;;2.15;2.00;;;;;;;;;;5078453;28;20212;-53
2020/12/14 03:48:10;;;;;;;2.40;1.90;;;;;;;;;;5085537;28;20246;-53
2020/12/14 03:50:42;;;;;;;2.78;2.15;;;;;;;;;;5081437;28;20199;-53
2020/12/14 03:53:08;;;;;;;2.20;2.00;;;;;;;;;;5075417;28;20170;-53
2020/12/14 03:55:34;;;;;;;2.78;1.98;;;;;;;;;;5077377;28;20249;-53
2020/12/14 03:58:00;;;;;;;2.45;2.10;;;;;;;;;;5083707;28;20178;-53
2020/12/14 04:00:26;;;;;;;2.42;2.17;;;;;;;;;;5076876;28;20185;-53
2020/12/14 04:02:52;;;;;;;1.98;1.77;;;;;;;;;;5075957;28;20253;-52
2020/12/14 04:05:18;;;;;;;2.72;2.00;;;;;;;;;;5088582;28;20201;-52
2020/12/14 04:07:44;;;;;;;2.05;1.60;;;;;;;;;;5087289;28;20179;-52
2020/12/14 04:10:10;;;;;;;2.80;2.15;;;;;;;;;;5087438;28;20576;-52
2020/12/14 04:12:36;;;;;;;1.60;1.50;;;;;;;;;;5095304;28;20185;-52
2020/12/14 04:15:02;;;;;;;1.60;1.50;;;;;;;;;;5094530;28;20178;-52
2020/12/14 04:17:28;;;;;;;1.75;1.65;;;;;;;;;;5095595;28;20178;-52
2020/12/14 04:19:54;;;;;;;2.55;1.90;;;;;;;;;;5095178;28;20182;-52
2020/12/14 04:22:20;;;;;;;2.20;1.50;;;;;;;;;;5077133;28;20182;-52
2020/12/14 04:24:46;;;;;;;1.70;1.60;;;;;;;;;;5054470;28;614264;-52
2020/12/14 04:27:12;;;;;;;2.03;1.83;;;;;;;;;;5079421;28;20441;-52
2020/12/14 04:29:38;;;;;;;1.70;1.50;;;;;;;;;;5096627;28;20205;-52
2020/12/14 04:32:04;;;;;;;2.15;1.60;;;;;;;;;;5094676;28;20181;-52
2020/12/14 04:34:30;;;;;;;1.65;1.50;;;;;;;;;;5075883;28;20182;-52
2020/12/14 04:36:56;;;;;;;1.90;1.63;;;;;;;;;;5076054;28;20188;-52
2020/12/14 04:39:22;;;;;;;1.58;1.48;;;;;;;;;;5079521;28;20175;-52
2020/12/14 04:41:48;;;;;;;1.70;1.60;;;;;;;;;;5098994;28;20193;-52
2020/12/14 04:44:14;;;;;;;1.50;1.40;;;;;;;;;;5116218;28;20170;-52
2020/12/14 04:46:42;;;;;;;1.50;1.40;;;;;;;;;;5102068;28;20174;-52
2020/12/14 04:49:09;;;;;;;1.70;1.60;;;;;;;;;;5095943;28;20221;-52
2020/12/14 04:51:38;;;;;;;1.90;1.65;;;;;;;;;;5095529;28;20226;-52
2020/12/14 04:54:08;;;;;;;1.63;1.50;;;;;;;;;;5095684;28;20251;-52
2020/12/14 04:56:39;;;;;;;1.50;1.40;;;;;;;;;;5096191;28;20174;-52
2020/12/14 04:59:05;;;;;;;1.60;1.50;;;;;;;;;;5096262;28;20190;-52
2020/12/14 05:01:31;;;;;;;1.88;1.40;;;;;;;;;;5088170;28;20205;-52
2020/12/14 05:03:57;;;;;;;1.63;1.50;;;;;;;;;;5075653;28;20249;-52
2020/12/14 05:06:23;;;;;;;1.92;1.38;;;;;;;;;;5075702;28;20168;-52
2020/12/14 05:08:49;;;;;;;1.50;1.40;;;;;;;;;;5090401;28;20229;-52
2020/12/14 05:11:15;;;;;;;1.33;1.23;;;;;;;;;;5095211;28;20174;-52
2020/12/14 05:13:41;;;;;;;1.42;1.33;;;;;;;;;;5097956;28;20249;-53
2020/12/14 05:16:07;;;;;;;1.50;1.40;;;;;;;;;;5083780;28;20242;-53
2020/12/14 05:18:33;;;;;;;2.47;1.73;;;;;;;;;;5086629;28;20257;-43
2020/12/14 05:21:00;;;;;;;4.03;1.30;;;;;;;;;;5089417;28;20187;-56
2020/12/14 05:23:26;;;;;;;4.57;1.98;;;;;;;;;;5078175;28;20192;-56
2020/12/14 05:26:03;;;;;;;4.00;1.92;;;;;;;;;;5077480;28;20194;-56
2020/12/14 05:28:29;;;;;;;9.00;2.30;;;;;;;;;;5079873;28;20240;-56
2020/12/14 05:30:55;;;;;;;6.40;1.98;;;;;;;;;;5090070;28;20557;-56
2020/12/14 05:33:22;;;;;;;5.82;1.88;;;;;;;;;;5078332;28;20245;-56
2020/12/14 05:35:48;;;;;;;19.05;2.88;;;;;;;;;;5077405;28;20228;-56
2020/12/14 05:38:16;;;;;;;6.22;2.10;;;;;;;;;;5078379;28;20282;-56
2020/12/14 05:40:43;;;;;;;7.15;2.00;;;;;;;;;;5086014;28;20288;-56
2020/12/14 05:43:09;;;;;;;5.10;2.00;;;;;;;;;;5113539;28;20232;-56
2020/12/14 05:45:36;;;;;;;6.68;2.25;;;;;;;;;;5097218;28;20249;-56
2020/12/14 05:48:02;;;;;;;4.88;2.17;;;;;;;;;;5098067;28;20185;-56
2020/12/14 05:50:28;;;;;;;8.43;2.08;;;;;;;;;;5094653;28;20226;-56
2020/12/14 05:52:54;;;;;;;3.58;2.00;;;;;;;;;;5077848;28;20192;-56
2020/12/14 05:55:23;;;;;;;5.90;2.17;;;;;;;;;;5093974;28;20178;-56
2020/12/14 05:57:53;;;;;;;3.28;1.77;;;;;;;;;;5097199;28;20189;-56
2020/12/14 06:00:19;;;;;;;5.70;2.03;;;;;;;;;;5095787;28;20182;-57
2020/12/14 06:02:46;;;;;;;3.80;2.15;;;;;;;;;;5077594;28;20178;-57
2020/12/14 06:05:12;;;;;;;4.25;1.95;;;;;;;;;;5077203;28;20175;-57
2020/12/14 06:07:38;;;;;;;3.53;1.80;;;;;;;;;;5082783;28;20623;-57
2020/12/14 06:10:08;;;;;;;6.40;2.25;;;;;;;;;;5096859;28;20209;-57
2020/12/14 06:12:34;;;;;;;6.03;1.75;;;;;;;;;;5090259;28;20174;-57
2020/12/14 06:15:01;;;;;;;3.85;1.85;;;;;;;;;;5096604;28;20453;-57
2020/12/14 06:17:28;;;;;;;2.40;1.73;;;;;;;;;;5084360;28;20185;-57
2020/12/14 06:20:01;;;;;;;5.40;2.20;;;;;;;;;;5094708;28;20186;-57
2020/12/14 06:22:28;;;;;;;4.35;1.73;;;;;;;;;;5093334;28;20220;-57
2020/12/14 06:24:58;;;;;;;4.45;1.77;;;;;;;;;;5095704;28;20188;-57
2020/12/14 06:27:26;;;;;;;1.83;1.33;;;;;;;;;;5077599;28;20218;-57
2020/12/14 06:29:52;;;;;;;3.10;1.52;;;;;;;;;;5076931;28;20255;-57
2020/12/14 06:32:34;;;;;;;3.38;1.60;;;;;;;;;;5094987;28;20186;-57
2020/12/14 06:35:00;;;;;;;3.13;1.63;;;;;;;;;;5096613;28;20239;-57
2020/12/14 06:37:45;;;;;;;4.82;1.80;;;;;;;;;;5096907;28;20181;-57
2020/12/14 06:40:11;;;;;;;3.50;1.77;;;;;;;;;;5096776;28;20234;-57
2020/12/14 06:42:37;;;;;;;3.28;1.48;;;;;;;;;;5107945;28;20201;-57
2020/12/14 06:45:07;;;;;;;2.35;1.27;;;;;;;;;;5094652;28;20190;-57
2020/12/14 06:47:40;;;;;;;2.30;1.50;;;;;;;;;;5078034;28;20183;-57
2020/12/14 06:50:25;;;;;;;2.53;1.70;;;;;;;;;;5096640;28;20210;-57
2020/12/14 06:52:51;;;;;;;2.47;1.50;;;;;;;;;;5096759;28;20511;-57
2020/12/14 06:55:27;;;;;;;1.95;1.48;;;;;;;;;;5084518;28;20198;-57
2020/12/14 06:57:53;;;;;;;6.68;1.63;;;;;;;;;;5095857;28;20185;-57
2020/12/14 07:00:31;;;;;;;3.38;1.55;;;;;;;;;;5096919;28;20178;-57
2020/12/14 07:02:57;;;;;;;2.50;1.30;;;;;;;;;;5076548;28;20243;-57
2020/12/14 07:05:29;;;;;;;3.40;1.38;;;;;;;;;;5091510;28;20273;-57
2020/12/14 07:07:55;;;;;;;2.45;1.45;;;;;;;;;;5087922;28;20178;-57
2020/12/14 07:10:25;;;;;;;3.50;1.17;;;;;;;;;;5089538;28;20603;-57
2020/12/14 07:12:51;;;;;;;3.20;1.35;;;;;;;;;;5096283;28;20174;-57
2020/12/14 07:15:28;;;;;;;2.63;1.25;;;;;;;;;;5095487;28;20173;-57
2020/12/14 07:18:17;;;;;;;2.38;1.42;;;;;;;;;;5077651;28;20178;-59
2020/12/14 07:20:53;;;;;;;2.53;1.30;;;;;;;;;;5076269;28;20192;-58
2020/12/14 07:23:19;;;;;;;2.00;1.30;;;;;;;;;;5090331;28;20204;-59
2020/12/14 07:25:48;;;;;;;2.50;1.50;;;;;;;;;;5095417;28;20256;-58
2020/12/14 07:28:14;;;;;;;3.38;1.67;;;;;;;;;;5096422;28;20184;-58
2020/12/14 07:30:41;;;;;;;1.75;1.17;;;;;;;;;;5095730;28;20576;-58
2020/12/14 07:33:07;;;;;;;1.92;1.50;;;;;;;;;;5096249;28;20189;-58
2020/12/14 07:35:33;;;;;;;1.95;1.20;;;;;;;;;;5095367;28;20270;-58
2020/12/14 07:37:59;;;;;;;2.47;1.00;;;;;;;;;;5077129;28;20249;-58
2020/12/14 07:40:25;;;;;;;1.88;1.50;;;;;;;;;;5096225;28;20177;-58
2020/12/14 07:42:50;;;;;;;2.10;1.10;;;;;;;;;;5114749;28;20451;-58
2020/12/14 07:45:20;;;;;;;2.85;1.00;;;;;;;;;;5115264;28;20173;-58
2020/12/14 07:47:47;;;;;;;1.90;1.30;;;;;;;;;;5115997;28;20177;-58
2020/12/14 07:50:15;;;;;;;1.27;1.10;;;;;;;;;;5105918;28;20216;-58
2020/12/14 07:52:41;;;;;;;2.00;1.20;;;;;;;;;;5082831;28;20267;-58
2020/12/14 07:55:08;;;;;;;1.33;1.02;;;;;;;;;;5095311;28;20173;-58
2020/12/14 07:57:36;;;;;;;1.73;1.10;;;;;;;;;;5095164;28;20193;-58
2020/12/14 08:00:13;;;;;;;1.95;1.00;;;;;;;;;;5095933;28;20440;-58
2020/12/14 08:02:39;;;;;;;1.58;1.02;;;;;;;;;;5089400;28;20186;-58
2020/12/14 08:05:10;;;;;;;1.98;1.30;;;;;;;;;;5084161;28;20200;-58
2020/12/14 08:07:46;;;;;;;2.58;1.17;;;;;;;;;;5095339;28;20185;-58
2020/12/14 08:10:13;;;;;;;1.70;1.10;;;;;;;;;;5095181;28;20197;-58
2020/12/14 08:12:41;;;;;;;2.35;1.10;;;;;;;;;;5095403;28;20178;-58
2020/12/14 08:15:15;;;;;;;1.60;1.10;;;;;;;;;;5083812;28;20175;-58
2020/12/14 08:17:41;;;;;;;1.00;0.88;;;;;;;;;;5074365;28;20193;-58
2020/12/14 08:20:07;;;;;;;1.20;1.10;;;;;;;;;;5092271;28;20185;-58
2020/12/14 08:22:34;;;;;;;1.10;1.00;;;;;;;;;;5095275;28;20215;-58
2020/12/14 08:25:00;;;;;;;1.00;0.90;;;;;;;;;;5100652;28;20450;-58
2020/12/14 08:27:39;;;;;;;2.53;1.17;;;;;;;;;;5103073;28;20197;-58
2020/12/14 08:30:06;;;;;;;1.10;1.00;;;;;;;;;;5093198;28;20232;-58
2020/12/14 08:32:32;;;;;;;1.70;1.00;;;;;;;;;;5086236;28;20174;-58
2020/12/14 08:34:59;;;;;;;1.17;1.05;;;;;;;;;;5075857;28;20179;-58
2020/12/14 08:37:25;;;;;;;1.58;0.90;;;;;;;;;;5095356;28;20204;-58
2020/12/14 08:40:01;;;;;;;1.83;1.15;;;;;;;;;;5094695;28;20327;-58
2020/12/14 08:42:30;;;;;;;1.42;1.15;;;;;;;;;;5111098;28;20192;-58
2020/12/14 08:45:06;;;;;;;1.92;0.80;;;;;;;;;;5114553;28;20204;-58
2020/12/14 08:47:36;;;;;;;1.02;0.93;;;;;;;;;;5080950;28;20174;-58
2020/12/14 08:50:02;;;;;;;1.52;0.88;;;;;;;;;;5085329;28;20244;-58
2020/12/14 08:52:28;;;;;;;1.42;1.05;;;;;;;;;;5098403;28;20243;-58
2020/12/14 08:54:55;;;;;;;3.33;1.20;;;;;;;;;;5098302;28;20553;-58
2020/12/14 08:57:25;;;;;;;1.15;0.90;;;;;;;;;;5098650;28;20217;-58
2020/12/14 09:00:08;;;;;;;1.75;0.90;;;;;;;;;;5099053;28;20559;-58
2020/12/14 09:02:34;;;;;;;2.50;1.05;;;;;;;;;;5095358;28;20232;-58
2020/12/14 09:05:12;;;;;;;1.48;1.00;;;;;;;;;;5088528;28;20194;-58
2020/12/14 09:07:38;;;;;;;2.60;1.10;;;;;;;;;;5098761;28;20185;-58
2020/12/14 09:10:13;;;;;;;1.63;0.85;;;;;;;;;;5098714;28;20198;-59
2020/12/14 09:12:39;;;;;;;1.30;0.93;;;;;;;;;;5099074;28;20612;-58
2020/12/14 09:15:06;;;;;;;1.63;0.90;;;;;;;;;;5084969;28;20182;-58
2020/12/14 09:17:32;;;;;;;1.13;0.90;;;;;;;;;;5078185;28;20178;-58
2020/12/14 09:19:58;;;;;;;1.27;0.88;;;;;;;;;;5078251;28;20240;-58
2020/12/14 09:22:27;;;;;;;2.35;0.80;;;;;;;;;;5094313;28;20515;-58
2020/12/14 09:24:53;;;;;;;0.90;0.90;;;;;;;;;;5087145;28;20197;-58
2020/12/14 09:27:20;;;;;;;1.13;0.90;;;;;;;;;;5078555;28;20198;-58
2020/12/14 09:29:46;;;;;;;0.80;0.80;;;;;;;;;;5078082;28;20190;-58
2020/12/14 09:32:13;;;;;;;1.13;0.70;;;;;;;;;;5078490;28;20189;-58
2020/12/14 09:34:39;;;;;;;0.80;0.80;;;;;;;;;;5077547;28;20170;-58
2020/12/14 09:37:07;;;;;;;0.93;0.70;;;;;;;;;;5085502;28;20182;-58
2020/12/14 09:39:34;;;;;;;1.55;1.00;;;;;;;;;;5078433;28;20201;-58
2020/12/14 09:42:01;;;;;;;1.75;0.85;;;;;;;;;;5099474;28;20659;-58
2020/12/14 09:44:28;;;;;;;0.77;0.77;;;;;;;;;;5077588;28;20194;-58
2020/12/14 09:46:55;;;;;;;1.55;0.90;;;;;;;;;;5083379;28;20185;-59
2020/12/14 09:49:22;;;;;;;0.75;0.75;;;;;;;;;;5095875;28;20213;-59
2020/12/14 09:51:49;;;;;;;0.80;0.80;;;;;;;;;;5098101;28;20568;-58
2020/12/14 09:54:15;;;;;;;1.88;0.82;;;;;;;;;;5087775;28;20179;-58
2020/12/14 09:56:42;;;;;;;1.13;0.80;;;;;;;;;;5077652;28;20171;-58
2020/12/14 09:59:08;;;;;;;0.75;0.75;;;;;;;;;;5077745;28;20220;-58
2020/12/14 10:01:34;;;;;;;1.02;0.80;;;;;;;;;;5078155;28;20269;-58
2020/12/14 10:04:00;;;;;;;1.20;0.80;;;;;;;;;;5077084;28;20186;-58
2020/12/14 10:06:26;;;;;;;0.90;0.85;;;;;;;;;;5077509;28;20542;-58
2020/12/14 10:08:52;;;;;;;0.95;0.90;;;;;;;;;;5077416;28;20591;-58
2020/12/14 10:11:23;;;;;;;1.75;0.80;;;;;;;;;;5078530;28;20260;-58
2020/12/14 10:13:49;;;;;;;1.05;0.90;;;;;;;;;;5092834;28;20189;-59
2020/12/14 10:16:15;;;;;;;1.08;0.98;;;;;;;;;;5096566;28;20173;-59
2020/12/14 10:18:41;;;;;;;0.70;0.63;;;;;;;;;;5097492;28;20181;-59
2020/12/14 10:21:07;;;;;;;0.70;0.70;;;;;;;;;;5097766;28;20202;-58
2020/12/14 10:23:33;;;;;;;1.10;0.85;;;;;;;;;;5097586;28;20186;-58
2020/12/14 10:25:59;;;;;;;0.70;0.70;;;;;;;;;;5077437;28;20565;-58
2020/12/14 10:28:25;;;;;;;1.00;0.90;;;;;;;;;;5095704;28;20182;-58
2020/12/14 10:30:51;;;;;;;1.60;0.60;;;;;;;;;;5096992;28;20220;-58
2020/12/14 10:33:18;;;;;;;0.65;0.65;;;;;;;;;;5097470;28;20199;-58
2020/12/14 10:35:44;;;;;;;0.73;0.70;;;;;;;;;;5081062;28;20217;-58
2020/12/14 10:38:10;;;;;;;1.00;0.80;;;;;;;;;;5104976;28;20190;-58
2020/12/14 10:40:36;;;;;;;0.60;0.60;;;;;;;;;;5089286;28;20443;-58
2020/12/14 10:43:02;;;;;;;0.77;0.77;;;;;;;;;;5091889;28;20183;-58
2020/12/14 10:45:28;;;;;;;0.82;0.70;;;;;;;;;;5086164;28;20350;-58
2020/12/14 10:47:54;;;;;;;1.17;0.85;;;;;;;;;;5095912;28;20190;-58
2020/12/14 10:50:24;;;;;;;0.75;0.68;;;;;;;;;;5096829;28;20205;-59
2020/12/14 10:52:50;;;;;;;0.60;0.60;;;;;;;;;;5095211;28;20170;-59
2020/12/14 10:55:18;;;;;;;0.88;0.70;;;;;;;;;;5077103;28;20549;-58
2020/12/14 10:57:44;;;;;;;1.15;0.80;;;;;;;;;;5080453;28;20188;-58
2020/12/14 11:00:11;;;;;;;0.77;0.70;;;;;;;;;;5096001;28;20320;-58
2020/12/14 11:02:40;;;;;;;0.63;0.52;;;;;;;;;;5096736;28;20170;-58
2020/12/14 11:05:10;;;;;;;1.48;0.70;;;;;;;;;;5101558;28;20179;-58
2020/12/14 11:07:37;;;;;;;1.00;0.80;;;;;;;;;;5103807;28;20457;-58
2020/12/14 11:10:07;;;;;;;0.63;0.63;;;;;;;;;;5096080;28;20193;-58
2020/12/14 11:12:33;;;;;;;1.42;0.98;;;;;;;;;;5095455;28;20564;-58
2020/12/14 11:14:59;;;;;;;1.63;0.75;;;;;;;;;;5089098;28;20181;-58
2020/12/14 11:17:25;;;;;;;0.52;0.52;;;;;;;;;;5083134;28;20182;-58
2020/12/14 11:19:51;;;;;;;0.60;0.60;;;;;;;;;;5080097;28;20174;-58
2020/12/14 11:22:17;;;;;;;1.90;0.70;;;;;;;;;;5090954;28;20452;-59
2020/12/14 11:24:43;;;;;;;0.70;0.70;;;;;;;;;;5094840;28;20224;-59
2020/12/14 11:27:09;;;;;;;0.60;0.60;;;;;;;;;;5095815;28;20247;-59
2020/12/14 11:29:35;;;;;;;0.70;0.70;;;;;;;;;;5095889;28;20573;-59
2020/12/14 11:32:01;;;;;;;0.68;0.60;;;;;;;;;;5096008;28;20177;-59
2020/12/14 11:34:27;;;;;;;2.25;0.80;;;;;;;;;;5089440;28;20223;-59
2020/12/14 11:36:53;;;;;;;0.60;0.60;;;;;;;;;;5095254;28;20181;-59
2020/12/14 11:39:20;;;;;;;0.60;0.60;;;;;;;;;;5096371;28;20182;-59
2020/12/14 11:41:49;;;;;;;0.73;0.73;;;;;;;;;;5095695;28;20311;-58
2020/12/14 11:44:15;;;;;;;0.82;0.77;;;;;;;;;;5089876;28;20186;-58
2020/12/14 11:46:42;;;;;;;1.25;0.90;;;;;;;;;;5095061;28;20177;-58
2020/12/14 11:49:08;;;;;;;0.90;0.75;;;;;;;;;;5091973;28;20197;-58
2020/12/14 11:51:37;;;;;;;0.80;0.80;;;;;;;;;;5093480;28;20572;-58
2020/12/14 11:54:04;;;;;;;0.70;0.68;;;;;;;;;;5095262;28;20174;-58
2020/12/14 11:56:30;;;;;;;1.30;0.80;;;;;;;;;;5089001;28;20190;-58
2020/12/14 11:58:56;;;;;;;0.60;0.50;;;;;;;;;;5095469;28;20247;-59
2020/12/14 12:01:22;;;;;;;0.65;0.65;;;;;;;;;;5087025;28;20249;-59
2020/12/14 12:03:49;;;;;;;0.60;0.60;;;;;;;;;;5075239;28;20183;-59
2020/12/14 12:06:15;;;;;;;0.75;0.70;;;;;;;;;;5075162;28;20233;-59
2020/12/14 12:08:41;;;;;;;0.77;0.70;;;;;;;;;;5074413;28;20175;-58
2020/12/14 12:11:07;;;;;;;1.17;0.70;;;;;;;;;;5059188;28;20190;-58
2020/12/14 12:13:33;;;;;;;0.60;0.60;;;;;;;;;;5075600;28;20197;-59
2020/12/14 12:15:59;;;;;;;0.70;0.70;;;;;;;;;;5086838;28;20442;-59
2020/12/14 12:18:25;;;;;;;0.63;0.55;;;;;;;;;;5095757;28;20177;-59
2020/12/14 12:20:51;;;;;;;1.40;0.80;;;;;;;;;;5094483;28;20293;-59
2020/12/14 12:23:17;;;;;;;1.10;0.80;;;;;;;;;;5081826;28;20202;-59
2020/12/14 12:25:43;;;;;;;1.90;0.90;;;;;;;;;;5097493;28;20268;-59
2020/12/14 12:28:09;;;;;;;1.77;0.95;;;;;;;;;;5100042;28;20561;-59
2020/12/14 12:30:35;;;;;;;1.50;1.10;;;;;;;;;;5099881;28;20220;-59
2020/12/14 12:33:02;;;;;;;1.48;1.08;;;;;;;;;;5099184;28;20196;-59
2020/12/14 12:35:28;;;;;;;1.95;0.80;;;;;;;;;;5089305;28;20182;-59
2020/12/14 12:37:54;;;;;;;0.90;0.85;;;;;;;;;;5096061;28;20190;-59
2020/12/14 12:40:20;;;;;;;0.70;0.70;;;;;;;;;;5099559;28;20571;-59
2020/12/14 12:42:46;;;;;;;2.78;0.85;;;;;;;;;;5117690;28;20256;-59
2020/12/14 12:45:12;;;;;;;0.90;0.90;;;;;;;;;;5118309;28;20185;-59
2020/12/14 12:47:38;;;;;;;1.08;0.98;;;;;;;;;;5119918;28;20169;-59
2020/12/14 12:50:04;;;;;;;0.90;0.90;;;;;;;;;;5099050;28;20540;-59
2020/12/14 12:52:30;;;;;;;0.98;0.85;;;;;;;;;;5083180;28;20186;-59
2020/12/14 12:54:56;;;;;;;1.65;1.30;;;;;;;;;;5085122;28;20181;-59
2020/12/14 12:57:22;;;;;;;1.15;1.05;;;;;;;;;;5099366;28;20216;-59
2020/12/14 12:59:48;;;;;;;1.67;0.98;;;;;;;;;;5090199;28;20460;-59
2020/12/14 13:02:14;;;;;;;1.50;1.08;;;;;;;;;;5079194;28;20178;-59
2020/12/14 13:04:40;;;;;;;1.98;1.00;;;;;;;;;;5096354;28;20194;-59
2020/12/14 13:07:06;;;;;;;2.63;1.10;;;;;;;;;;5098258;28;20181;-59
2020/12/14 13:09:32;;;;;;;2.30;1.02;;;;;;;;;;5093664;28;20214;-59
2020/12/14 13:11:59;;;;;;;1.40;1.30;;;;;;;;;;5078682;28;20196;-59
2020/12/14 13:14:25;;;;;;;1.30;1.20;;;;;;;;;;5096850;28;20177;-59
2020/12/14 13:16:51;;;;;;;1.60;1.15;;;;;;;;;;5085497;28;20186;-59
2020/12/14 13:19:17;;;;;;;1.48;1.10;;;;;;;;;;5086907;28;20264;-58
2020/12/14 13:21:43;;;;;;;3.50;1.50;;;;;;;;;;5097311;28;20186;-59
2020/12/14 13:24:09;;;;;;;3.42;1.35;;;;;;;;;;5096738;28;20307;-59
2020/12/14 13:26:35;;;;;;;3.83;1.98;;;;;;;;;;5098872;28;20177;-58
2020/12/14 13:29:01;;;;;;;4.13;1.67;;;;;;;;;;5098157;28;20202;-58
2020/12/14 13:31:27;;;;;;;7.03;1.65;;;;;;;;;;5098390;28;20249;-58
2020/12/14 13:33:54;;;;;;;3.70;1.50;;;;;;;;;;5093571;28;20264;-59
2020/12/14 13:36:21;;;;;;;5.40;2.00;;;;;;;;;;5077236;28;20197;-58
2020/12/14 13:38:47;;;;;;;11.65;3.75;;;;;;;;;;5086578;28;20435;-58
2020/12/14 13:41:14;;;;;;;28.05;7.03;;;;;;;;;;5102340;28;20173;-58
2020/12/14 13:43:40;;;;;;;26.90;6.15;;;;;;;;;;5104335;28;20188;-58
2020/12/14 13:46:07;;;;;;;26.63;7.75;;;;;;;;;;5095011;28;20458;-58
2020/12/14 13:48:33;;;;;;;34.60;9.00;;;;;;;;;;5093516;28;20192;-58
2020/12/14 13:50:59;;;;;;;45.90;9.57;;;;;;;;;;5077326;28;20240;-58
2020/12/14 13:53:26;;;;;;;36.28;9.65;;;;;;;;;;5081312;28;20589;-58
2020/12/14 13:55:52;;;;;;;35.42;8.38;;;;;;;;;;5096546;28;20412;-59
2020/12/14 13:58:18;;;;;;;40.53;9.45;;;;;;;;;;5082852;28;20179;-59
2020/12/14 14:00:44;;;;;;;34.10;8.75;;;;;;;;;;5095852;28;20498;-59
2020/12/14 14:03:10;;;;;;;30.88;8.50;;;;;;;;;;5098220;28;20591;-59
2020/12/14 14:05:36;;;;;;;36.20;9.35;;;;;;;;;;5096779;28;20235;-58
2020/12/14 14:08:02;;;;;;;32.10;8.25;;;;;;;;;;5096861;28;20224;-58
2020/12/14 14:10:28;;;;;;;34.95;9.25;;;;;;;;;;5097392;28;20198;-58
2020/12/14 14:12:54;;;;;;;30.15;9.38;;;;;;;;;;5097434;28;20200;-59
2020/12/14 14:15:20;;;;;;;28.15;9.55;;;;;;;;;;5091766;28;20553;-59
2020/12/14 14:17:46;;;;;;;26.92;7.90;;;;;;;;;;5096959;28;20260;-59
2020/12/14 14:20:12;;;;;;;32.90;10.02;;;;;;;;;;5096618;28;20564;-59
2020/12/14 14:22:38;;;;;;;62.65;22.15;;;;;;;;;;5097492;28;20280;-59
2020/12/14 14:25:05;;;;;;;106.50;44.58;;;;;;;;;;5097010;28;20182;-59
2020/12/14 14:27:31;;;;;;;116.63;54.75;;;;;;;;;;5097446;28;20190;-59
2020/12/14 14:29:57;;;;;;;116.35;51.63;;;;;;;;;;5095854;28;20194;-59
2020/12/14 14:32:25;;;;;;;108.50;52.20;;;;;;;;;;5094512;28;20189;-59
2020/12/14 14:34:51;;;;;;;108.63;53.95;;;;;;;;;;5096270;28;20246;-59
2020/12/14 14:37:20;;;;;;;120.35;60.20;;;;;;;;;;5097358;28;20618;-58
2020/12/14 14:39:46;;;;;;;113.03;52.35;;;;;;;;;;5080315;28;20189;-58